createdAt,value
2019-05-25T00:00:35.397Z,28.30
2019-05-25T00:01:11.494Z,28.30
2019-05-25T00:01:47.446Z,28.32
2019-05-25T00:02:23.338Z,28.32
2019-05-25T00:02:59.210Z,28.33
2019-05-25T00:03:35.191Z,28.31
2019-05-25T00:04:11.123Z,28.30
2019-05-25T00:04:47.019Z,28.25
2019-05-25T00:05:22.891Z,28.16
2019-05-25T00:05:58.855Z,28.16
2019-05-25T00:06:34.742Z,28.21
2019-05-25T00:07:10.625Z,28.17
2019-05-25T00:07:46.531Z,28.13
2019-05-25T00:08:24.729Z,28.11
2019-05-25T00:09:00.589Z,28.14
2019-05-25T00:09:36.433Z,28.13
2019-05-25T00:10:12.374Z,28.14
2019-05-25T00:10:48.376Z,28.14
2019-05-25T00:11:24.278Z,28.15
2019-05-25T00:12:00.138Z,28.14
2019-05-25T00:12:36.041Z,28.13
2019-05-25T00:13:11.956Z,28.10
2019-05-25T00:13:47.843Z,28.08
2019-05-25T00:14:23.744Z,28.09
2019-05-25T00:14:59.628Z,28.09
2019-05-25T00:15:35.493Z,28.07
2019-05-25T00:16:11.365Z,28.06
2019-05-25T00:16:47.253Z,28.08
2019-05-25T00:17:25.753Z,28.08
2019-05-25T00:18:01.720Z,28.05
2019-05-25T00:18:37.617Z,28.04
2019-05-25T00:19:13.525Z,28.05
2019-05-25T00:19:49.435Z,28.03
2019-05-25T00:20:25.298Z,28.05
2019-05-25T00:21:01.292Z,28.03
2019-05-25T00:21:37.250Z,28.03
2019-05-25T00:22:13.158Z,28.06
2019-05-25T00:22:49.158Z,28.06
2019-05-25T00:23:25.075Z,28.05
2019-05-25T00:24:11.613Z,28.07
2019-05-25T00:24:38.658Z,28.06
2019-05-25T00:25:14.671Z,28.06
2019-05-25T00:25:50.567Z,28.06
2019-05-25T00:26:26.407Z,28.07
2019-05-25T00:27:02.334Z,28.09
2019-05-25T00:27:38.191Z,28.08
2019-05-25T00:28:14.088Z,28.07
2019-05-25T00:28:50.050Z,28.07
2019-05-25T00:29:25.970Z,28.09
2019-05-25T00:30:02.032Z,28.06
2019-05-25T00:30:38.071Z,28.07
2019-05-25T00:31:14.210Z,28.04
2019-05-25T00:31:50.092Z,28.06
2019-05-25T00:32:26.057Z,28.07
2019-05-25T00:33:01.994Z,28.07
2019-05-25T00:33:39.518Z,28.07
2019-05-25T00:34:15.471Z,28.08
2019-05-25T00:34:51.334Z,28.08
2019-05-25T00:35:27.215Z,28.08
2019-05-25T00:36:03.125Z,28.09
2019-05-25T00:36:39.038Z,28.10
2019-05-25T00:37:16.022Z,28.12
2019-05-25T00:37:51.959Z,28.14
2019-05-25T00:38:27.806Z,28.13
2019-05-25T00:39:04.751Z,28.14
2019-05-25T00:39:40.700Z,28.14
2019-05-25T00:40:16.727Z,28.16
2019-05-25T00:40:52.687Z,28.17
2019-05-25T00:41:28.553Z,28.17
2019-05-25T00:42:04.401Z,28.15
2019-05-25T00:42:40.317Z,28.19
2019-05-25T00:43:16.168Z,28.16
2019-05-25T00:43:51.993Z,28.17
2019-05-25T00:44:27.852Z,28.17
2019-05-25T00:45:05.011Z,28.17
2019-05-25T00:45:40.902Z,28.18
2019-05-25T00:46:18.327Z,28.17
2019-05-25T00:46:54.536Z,28.16
2019-05-25T00:47:30.438Z,28.16
2019-05-25T00:48:06.592Z,28.15
2019-05-25T00:48:42.487Z,28.16
2019-05-25T00:49:21.145Z,28.14
2019-05-25T00:49:57.684Z,28.14
2019-05-25T00:50:33.532Z,28.09
2019-05-25T00:51:09.455Z,28.10
2019-05-25T00:51:45.333Z,28.12
2019-05-25T00:52:21.335Z,28.13
2019-05-25T00:52:57.236Z,28.15
2019-05-25T00:53:33.354Z,28.16
2019-05-25T00:54:09.286Z,28.17
2019-05-25T00:54:45.282Z,28.17
2019-05-25T00:55:21.664Z,28.16
2019-05-25T00:55:59.067Z,28.16
2019-05-25T00:56:34.962Z,28.15
2019-05-25T00:57:10.824Z,28.13
2019-05-25T00:57:46.719Z,28.15
2019-05-25T00:58:22.645Z,28.17
2019-05-25T00:58:58.553Z,28.17
2019-05-25T00:59:34.399Z,28.16
2019-05-25T01:00:10.325Z,28.18
2019-05-25T01:00:46.183Z,28.19
2019-05-25T01:01:24.474Z,28.21
2019-05-25T01:01:59.700Z,28.22
2019-05-25T01:02:35.772Z,28.22
2019-05-25T01:03:11.779Z,28.25
2019-05-25T01:03:47.631Z,28.24
2019-05-25T01:04:23.602Z,28.25
2019-05-25T01:04:59.509Z,28.26
2019-05-25T01:05:35.548Z,28.25
2019-05-25T01:06:12.959Z,28.27
2019-05-25T01:06:49.117Z,28.28
2019-05-25T01:07:25.065Z,28.28
2019-05-25T01:08:01.154Z,28.29
2019-05-25T01:08:37.082Z,28.30
2019-05-25T01:09:13.072Z,28.31
2019-05-25T01:09:48.931Z,28.32
2019-05-25T01:10:24.998Z,28.34
2019-05-25T01:11:00.987Z,28.35
2019-05-25T01:11:38.351Z,28.35
2019-05-25T01:12:14.238Z,28.38
2019-05-25T01:12:50.266Z,28.40
2019-05-25T01:13:26.139Z,28.39
2019-05-25T01:14:02.046Z,28.41
2019-05-25T01:14:37.884Z,28.42
2019-05-25T01:15:14.519Z,28.44
2019-05-25T01:15:50.397Z,28.46
2019-05-25T01:16:26.319Z,28.47
2019-05-25T01:17:03.865Z,28.47
2019-05-25T01:17:39.825Z,28.48
2019-05-25T01:18:15.716Z,28.49
2019-05-25T01:18:51.620Z,28.48
2019-05-25T01:19:27.585Z,28.48
2019-05-25T01:20:03.587Z,28.42
2019-05-25T01:20:42.339Z,28.49
2019-05-25T01:21:18.236Z,28.48
2019-05-25T01:21:54.128Z,28.50
2019-05-25T01:22:30.053Z,28.50
2019-05-25T01:23:06.040Z,28.52
2019-05-25T01:23:41.919Z,28.53
2019-05-25T01:24:17.769Z,28.48
2019-05-25T01:24:53.651Z,28.54
2019-05-25T01:25:31.131Z,28.55
2019-05-25T01:26:07.035Z,28.57
2019-05-25T01:26:42.961Z,28.58
2019-05-25T01:27:18.790Z,28.58
2019-05-25T01:27:54.633Z,28.59
2019-05-25T01:28:30.708Z,28.63
2019-05-25T01:29:06.569Z,28.63
2019-05-25T01:29:43.118Z,28.64
2019-05-25T01:30:19.194Z,28.66
2019-05-25T01:30:55.182Z,28.68
2019-05-25T01:31:31.023Z,28.68
2019-05-25T01:32:06.899Z,28.70
2019-05-25T01:32:42.796Z,28.71
2019-05-25T01:33:18.679Z,28.67
2019-05-25T01:33:54.559Z,28.73
2019-05-25T01:34:30.472Z,28.73
2019-05-25T01:35:06.409Z,28.74
2019-05-25T01:35:42.421Z,28.75
2019-05-25T01:36:18.422Z,28.75
2019-05-25T01:36:54.387Z,28.77
2019-05-25T01:37:30.465Z,28.73
2019-05-25T01:38:06.447Z,28.73
2019-05-25T01:38:42.347Z,28.77
2019-05-25T01:39:18.270Z,28.78
2019-05-25T01:39:54.129Z,28.79
2019-05-25T01:40:30.067Z,28.81
2019-05-25T01:41:05.946Z,28.83
2019-05-25T01:41:41.850Z,28.85
2019-05-25T01:42:17.785Z,28.85
2019-05-25T01:42:53.648Z,28.88
2019-05-25T01:43:29.581Z,28.83
2019-05-25T01:44:05.655Z,28.83
2019-05-25T01:44:41.552Z,28.89
2019-05-25T01:45:17.409Z,28.89
2019-05-25T01:45:53.426Z,28.87
2019-05-25T01:46:29.380Z,28.87
2019-05-25T01:47:07.002Z,28.90
2019-05-25T01:47:42.911Z,28.90
2019-05-25T01:48:18.846Z,28.91
2019-05-25T01:48:54.716Z,28.92
2019-05-25T01:49:30.560Z,28.92
2019-05-25T01:50:07.077Z,28.94
2019-05-25T01:50:42.960Z,28.97
2019-05-25T01:51:18.870Z,28.99
2019-05-25T01:51:54.781Z,28.99
2019-05-25T01:52:30.758Z,28.99
2019-05-25T01:53:06.733Z,29.00
2019-05-25T01:53:42.704Z,29.01
2019-05-25T01:54:18.740Z,29.02
2019-05-25T01:54:59.803Z,29.04
2019-05-25T01:55:32.418Z,29.05
2019-05-25T01:56:08.348Z,29.07
2019-05-25T01:56:45.783Z,29.06
2019-05-25T01:57:21.862Z,29.03
2019-05-25T01:57:57.735Z,29.01
2019-05-25T01:58:33.600Z,29.08
2019-05-25T01:59:09.477Z,29.10
2019-05-25T01:59:45.352Z,29.12
2019-05-25T02:00:21.643Z,29.13
2019-05-25T02:00:57.549Z,29.13
2019-05-25T02:01:33.493Z,29.14
2019-05-25T02:02:09.428Z,29.16
2019-05-25T02:02:45.427Z,29.13
2019-05-25T02:03:21.503Z,29.17
2019-05-25T02:03:57.439Z,29.18
2019-05-25T02:04:33.312Z,29.21
2019-05-25T02:05:09.538Z,29.23
2019-05-25T02:05:45.418Z,29.25
2019-05-25T02:06:21.368Z,29.24
2019-05-25T02:06:57.423Z,29.24
2019-05-25T02:07:33.364Z,29.30
2019-05-25T02:08:09.333Z,29.32
2019-05-25T02:08:45.283Z,29.30
2019-05-25T02:09:21.152Z,29.34
2019-05-25T02:09:57.088Z,29.34
2019-05-25T02:10:32.998Z,29.41
2019-05-25T02:11:08.868Z,29.42
2019-05-25T02:11:44.760Z,29.44
2019-05-25T02:12:20.659Z,29.45
2019-05-25T02:12:56.587Z,29.50
2019-05-25T02:13:32.485Z,29.53
2019-05-25T02:14:08.397Z,29.52
2019-05-25T02:14:44.339Z,29.54
2019-05-25T02:15:20.289Z,29.54
2019-05-25T02:15:56.203Z,29.61
2019-05-25T02:16:32.886Z,29.61
2019-05-25T02:17:08.751Z,29.72
2019-05-25T02:17:45.165Z,29.72
2019-05-25T02:18:21.054Z,29.71
2019-05-25T02:18:56.974Z,29.79
2019-05-25T02:19:32.859Z,29.79
2019-05-25T02:20:09.084Z,29.81
2019-05-25T02:20:45.058Z,29.90
2019-05-25T02:21:20.906Z,29.93
2019-05-25T02:21:56.890Z,29.93
2019-05-25T02:22:32.835Z,29.96
2019-05-25T02:23:08.780Z,30.02
2019-05-25T02:23:44.814Z,30.02
2019-05-25T02:24:20.729Z,30.09
2019-05-25T02:24:56.598Z,30.09
2019-05-25T02:25:32.530Z,30.13
2019-05-25T02:26:08.514Z,30.13
2019-05-25T02:26:44.434Z,30.22
2019-05-25T02:27:20.513Z,30.27
2019-05-25T02:27:56.400Z,30.28
2019-05-25T02:28:32.316Z,30.31
2019-05-25T02:29:08.173Z,30.39
2019-05-25T02:29:44.063Z,30.39
2019-05-25T02:30:21.650Z,30.44
2019-05-25T02:30:57.635Z,30.53
2019-05-25T02:31:33.476Z,30.53
2019-05-25T02:32:09.274Z,30.57
2019-05-25T02:32:45.142Z,30.52
2019-05-25T02:33:21.047Z,30.64
2019-05-25T02:33:56.983Z,30.66
2019-05-25T02:34:32.864Z,30.70
2019-05-25T02:35:11.854Z,30.73
2019-05-25T02:35:47.735Z,30.77
2019-05-25T02:36:23.629Z,30.84
2019-05-25T02:36:59.504Z,30.88
2019-05-25T02:37:35.359Z,30.89
2019-05-25T02:38:11.285Z,30.91
2019-05-25T02:38:47.305Z,30.94
2019-05-25T02:39:23.335Z,30.97
2019-05-25T02:39:59.255Z,31.02
2019-05-25T02:40:35.122Z,31.06
2019-05-25T02:41:11.043Z,31.11
2019-05-25T02:41:46.894Z,31.17
2019-05-25T02:42:22.801Z,31.22
2019-05-25T02:42:58.685Z,31.26
2019-05-25T02:43:34.583Z,31.30
2019-05-25T02:44:10.471Z,31.32
2019-05-25T02:44:46.337Z,31.36
2019-05-25T02:45:22.952Z,31.39
2019-05-25T02:45:58.867Z,31.43
2019-05-25T02:46:34.762Z,31.48
2019-05-25T02:47:10.758Z,31.52
2019-05-25T02:47:46.649Z,31.57
2019-05-25T02:48:22.537Z,31.61
2019-05-25T02:48:58.455Z,31.67
2019-05-25T02:49:34.453Z,31.73
2019-05-25T02:50:10.628Z,31.78
2019-05-25T02:50:46.490Z,31.83
2019-05-25T02:51:22.505Z,31.86
2019-05-25T02:51:58.494Z,31.93
2019-05-25T02:52:35.021Z,32.00
2019-05-25T02:53:10.903Z,32.05
2019-05-25T02:53:46.828Z,32.11
2019-05-25T02:54:22.786Z,32.17
2019-05-25T02:54:58.782Z,32.23
2019-05-25T02:55:35.375Z,32.25
2019-05-25T02:56:11.386Z,32.28
2019-05-25T02:56:47.287Z,32.28
2019-05-25T02:57:23.161Z,32.26
2019-05-25T02:57:59.071Z,32.25
2019-05-25T02:58:34.942Z,32.28
2019-05-25T02:59:10.798Z,32.32
2019-05-25T02:59:46.823Z,32.37
2019-05-25T03:00:32.404Z,32.40
2019-05-25T03:01:08.591Z,32.46
2019-05-25T03:01:44.518Z,32.52
2019-05-25T03:02:20.437Z,32.58
2019-05-25T03:02:56.617Z,32.66
2019-05-25T03:03:32.567Z,32.71
2019-05-25T03:04:08.578Z,32.74
2019-05-25T03:04:44.456Z,32.85
2019-05-25T03:05:20.347Z,32.89
2019-05-25T03:05:57.304Z,32.94
2019-05-25T03:06:33.692Z,33.00
2019-05-25T03:07:09.732Z,33.04
2019-05-25T03:07:46.660Z,33.12
2019-05-25T03:08:22.527Z,33.17
2019-05-25T03:08:59.414Z,33.22
2019-05-25T03:09:36.048Z,33.26
2019-05-25T03:10:11.898Z,33.30
2019-05-25T03:10:47.877Z,33.26
2019-05-25T03:11:23.881Z,33.31
2019-05-25T03:12:01.383Z,33.37
2019-05-25T03:12:37.230Z,33.46
2019-05-25T03:13:13.247Z,33.55
2019-05-25T03:13:49.189Z,33.58
2019-05-25T03:14:25.071Z,33.65
2019-05-25T03:15:01.067Z,33.69
2019-05-25T03:15:37.011Z,33.67
2019-05-25T03:16:12.874Z,33.65
2019-05-25T03:16:48.827Z,33.64
2019-05-25T03:17:26.259Z,33.58
2019-05-25T03:18:02.200Z,33.56
2019-05-25T03:18:38.126Z,33.55
2019-05-25T03:19:14.006Z,33.58
2019-05-25T03:19:49.903Z,33.58
2019-05-25T03:20:25.743Z,33.58
2019-05-25T03:21:01.664Z,33.64
2019-05-25T03:21:37.538Z,33.65
2019-05-25T03:22:13.429Z,33.73
2019-05-25T03:22:49.425Z,33.76
2019-05-25T03:23:25.320Z,33.76
2019-05-25T03:24:01.197Z,33.80
2019-05-25T03:24:37.034Z,33.83
2019-05-25T03:25:13.033Z,33.80
2019-05-25T03:25:50.243Z,33.79
2019-05-25T03:26:26.399Z,33.78
2019-05-25T03:27:02.319Z,33.72
2019-05-25T03:27:38.349Z,33.77
2019-05-25T03:28:14.211Z,33.79
2019-05-25T03:28:50.047Z,33.84
2019-05-25T03:29:26.660Z,33.90
2019-05-25T03:30:02.593Z,33.90
2019-05-25T03:30:38.790Z,33.98
2019-05-25T03:31:14.736Z,34.06
2019-05-25T03:31:50.605Z,34.09
2019-05-25T03:32:26.472Z,34.10
2019-05-25T03:33:02.362Z,34.10
2019-05-25T03:33:38.245Z,34.04
2019-05-25T03:34:14.143Z,33.97
2019-05-25T03:34:50.040Z,33.91
2019-05-25T03:35:25.906Z,33.84
2019-05-25T03:36:01.831Z,33.76
2019-05-25T03:36:37.686Z,33.69
2019-05-25T03:37:13.601Z,33.63
2019-05-25T03:37:49.592Z,33.56
2019-05-25T03:38:25.416Z,33.54
2019-05-25T03:39:01.265Z,33.57
2019-05-25T03:39:37.143Z,33.59
2019-05-25T03:40:13.189Z,33.58
2019-05-25T03:40:49.028Z,33.52
2019-05-25T03:41:26.425Z,33.51
2019-05-25T03:42:02.323Z,33.45
2019-05-25T03:42:38.238Z,33.46
2019-05-25T03:43:14.245Z,33.43
2019-05-25T03:43:50.125Z,33.47
2019-05-25T03:44:25.974Z,33.48
2019-05-25T03:45:01.943Z,33.47
2019-05-25T03:45:37.937Z,33.43
2019-05-25T03:46:13.937Z,33.46
2019-05-25T03:46:49.772Z,33.48
2019-05-25T03:47:25.643Z,33.49
2019-05-25T03:48:01.537Z,33.53
2019-05-25T03:48:37.448Z,33.59
2019-05-25T03:49:13.317Z,33.58
2019-05-25T03:49:49.197Z,33.61
2019-05-25T03:50:25.080Z,33.62
2019-05-25T03:51:01.080Z,33.62
2019-05-25T03:51:37.003Z,33.61
2019-05-25T03:52:12.869Z,33.52
2019-05-25T03:52:48.861Z,33.50
2019-05-25T03:53:24.757Z,33.48
2019-05-25T03:54:00.673Z,33.47
2019-05-25T03:54:36.521Z,33.49
2019-05-25T03:55:12.420Z,33.51
2019-05-25T03:55:48.287Z,33.49
2019-05-25T03:56:24.284Z,33.52
2019-05-25T03:57:00.198Z,33.51
2019-05-25T03:57:36.110Z,33.52
2019-05-25T03:58:11.969Z,33.55
2019-05-25T03:58:47.812Z,33.60
2019-05-25T03:59:23.952Z,33.63
2019-05-25T03:59:59.808Z,33.61
2019-05-25T04:00:37.040Z,33.64
2019-05-25T04:01:13.099Z,33.66
2019-05-25T04:01:48.974Z,33.73
2019-05-25T04:02:24.872Z,33.78
2019-05-25T04:03:00.751Z,33.85
2019-05-25T04:03:36.642Z,33.91
2019-05-25T04:04:12.514Z,33.97
2019-05-25T04:04:48.399Z,34.06
2019-05-25T04:05:24.216Z,34.10
2019-05-25T04:06:00.082Z,34.09
2019-05-25T04:06:35.953Z,34.13
2019-05-25T04:07:11.806Z,34.14
2019-05-25T04:07:47.926Z,34.13
2019-05-25T04:08:23.855Z,34.07
2019-05-25T04:08:59.766Z,34.01
2019-05-25T04:09:35.606Z,33.99
2019-05-25T04:10:11.463Z,33.98
2019-05-25T04:10:48.632Z,33.94
2019-05-25T04:11:24.475Z,33.92
2019-05-25T04:12:00.402Z,33.89
2019-05-25T04:12:37.798Z,33.85
2019-05-25T04:13:13.823Z,33.85
2019-05-25T04:13:49.797Z,33.82
2019-05-25T04:14:25.696Z,33.79
2019-05-25T04:15:01.574Z,33.71
2019-05-25T04:15:37.497Z,33.72
2019-05-25T04:16:13.368Z,33.68
2019-05-25T04:16:49.267Z,33.69
2019-05-25T04:17:25.258Z,33.69
2019-05-25T04:18:01.121Z,33.72
2019-05-25T04:18:36.968Z,33.75
2019-05-25T04:19:12.876Z,33.82
2019-05-25T04:19:49.320Z,33.86
2019-05-25T04:20:25.225Z,33.87
2019-05-25T04:21:01.153Z,33.86
2019-05-25T04:21:38.313Z,33.88
2019-05-25T04:22:14.178Z,33.89
2019-05-25T04:22:50.111Z,33.93
2019-05-25T04:23:26.109Z,33.95
2019-05-25T04:24:02.029Z,34.04
2019-05-25T04:24:37.987Z,34.08
2019-05-25T04:25:13.927Z,34.12
2019-05-25T04:25:49.807Z,34.17
2019-05-25T04:26:27.589Z,34.20
2019-05-25T04:27:03.349Z,34.26
2019-05-25T04:27:39.323Z,34.31
2019-05-25T04:28:15.376Z,34.37
2019-05-25T04:28:51.909Z,34.42
2019-05-25T04:29:27.872Z,34.49
2019-05-25T04:30:03.782Z,34.52
2019-05-25T04:30:39.637Z,34.56
2019-05-25T04:31:15.495Z,34.52
2019-05-25T04:31:51.451Z,34.52
2019-05-25T04:32:27.327Z,34.51
2019-05-25T04:33:03.208Z,34.49
2019-05-25T04:33:39.028Z,34.42
2019-05-25T04:34:15.046Z,34.40
2019-05-25T04:34:50.980Z,34.36
2019-05-25T04:35:26.960Z,34.34
2019-05-25T04:36:02.811Z,34.32
2019-05-25T04:36:38.639Z,34.31
2019-05-25T04:37:16.158Z,34.31
2019-05-25T04:37:51.970Z,34.31
2019-05-25T04:38:27.846Z,34.26
2019-05-25T04:39:05.364Z,34.28
2019-05-25T04:39:41.820Z,34.29
2019-05-25T04:40:17.704Z,34.29
2019-05-25T04:40:53.656Z,34.29
2019-05-25T04:41:29.547Z,34.31
2019-05-25T04:42:05.373Z,34.32
2019-05-25T04:42:41.283Z,34.34
2019-05-25T04:43:17.156Z,34.34
2019-05-25T04:43:53.429Z,34.36
2019-05-25T04:44:29.391Z,34.37
2019-05-25T04:45:05.529Z,34.43
2019-05-25T04:45:41.410Z,34.53
2019-05-25T04:46:17.292Z,34.61
2019-05-25T04:46:53.944Z,34.70
2019-05-25T04:47:32.004Z,34.77
2019-05-25T04:48:08.000Z,34.84
2019-05-25T04:48:43.887Z,34.91
2019-05-25T04:49:19.770Z,34.99
2019-05-25T04:49:55.642Z,35.05
2019-05-25T04:50:31.548Z,35.11
2019-05-25T04:51:07.490Z,35.14
2019-05-25T04:51:44.064Z,35.18
2019-05-25T04:52:21.453Z,35.21
2019-05-25T04:52:58.015Z,35.24
2019-05-25T04:53:34.419Z,35.27
2019-05-25T04:54:10.839Z,35.33
2019-05-25T04:54:47.185Z,35.39
2019-05-25T04:55:23.151Z,35.41
2019-05-25T04:55:59.144Z,35.41
2019-05-25T04:56:44.303Z,35.45
2019-05-25T04:57:21.655Z,35.45
2019-05-25T04:57:57.568Z,35.35
2019-05-25T04:58:33.495Z,35.31
2019-05-25T04:59:09.402Z,35.29
2019-05-25T04:59:46.063Z,35.24
2019-05-25T05:00:21.929Z,35.24
2019-05-25T05:00:57.902Z,35.20
2019-05-25T05:01:33.839Z,35.19
2019-05-25T05:02:09.813Z,35.15
2019-05-25T05:02:45.703Z,35.10
2019-05-25T05:03:21.676Z,35.07
2019-05-25T05:03:57.709Z,35.04
2019-05-25T05:04:33.570Z,35.00
2019-05-25T05:05:09.447Z,34.98
2019-05-25T05:05:45.309Z,34.91
2019-05-25T05:06:21.164Z,34.88
2019-05-25T05:06:57.080Z,34.86
2019-05-25T05:07:32.958Z,34.85
2019-05-25T05:08:08.859Z,34.83
2019-05-25T05:08:44.765Z,34.72
2019-05-25T05:09:20.617Z,34.71
2019-05-25T05:10:02.774Z,34.71
2019-05-25T05:10:34.222Z,34.70
2019-05-25T05:11:10.111Z,34.70
2019-05-25T05:11:45.976Z,34.68
2019-05-25T05:12:21.839Z,34.68
2019-05-25T05:12:57.706Z,34.66
2019-05-25T05:13:33.623Z,34.65
2019-05-25T05:14:09.504Z,34.65
2019-05-25T05:14:45.343Z,34.65
2019-05-25T05:15:21.754Z,34.65
2019-05-25T05:15:57.723Z,34.63
2019-05-25T05:16:33.611Z,34.63
2019-05-25T05:17:09.480Z,34.63
2019-05-25T05:17:45.488Z,34.63
2019-05-25T05:18:21.341Z,34.63
2019-05-25T05:18:57.278Z,34.62
2019-05-25T05:19:33.131Z,34.60
2019-05-25T05:20:11.093Z,34.55
2019-05-25T05:20:46.991Z,34.54
2019-05-25T05:21:22.859Z,34.45
2019-05-25T05:21:58.844Z,34.43
2019-05-25T05:22:34.820Z,34.45
2019-05-25T05:23:10.790Z,34.43
2019-05-25T05:23:46.670Z,34.45
2019-05-25T05:24:22.546Z,34.47
2019-05-25T05:24:58.438Z,34.49
2019-05-25T05:25:34.267Z,34.49
2019-05-25T05:26:10.122Z,34.50
2019-05-25T05:26:55.396Z,34.53
2019-05-25T05:27:23.640Z,34.55
2019-05-25T05:27:59.567Z,34.54
2019-05-25T05:28:35.398Z,34.53
2019-05-25T05:29:11.421Z,34.57
2019-05-25T05:29:47.315Z,34.53
2019-05-25T05:30:32.675Z,34.54
2019-05-25T05:31:22.747Z,34.54
2019-05-25T05:31:46.389Z,34.55
2019-05-25T05:32:27.448Z,34.56
2019-05-25T05:33:00.137Z,34.57
2019-05-25T05:33:36.144Z,34.57
2019-05-25T05:34:13.350Z,34.58
2019-05-25T05:34:49.234Z,34.59
2019-05-25T05:35:25.096Z,34.59
2019-05-25T05:36:01.758Z,34.60
2019-05-25T05:36:39.111Z,34.60
2019-05-25T05:37:14.998Z,34.59
2019-05-25T05:37:50.929Z,34.58
2019-05-25T05:38:27.117Z,34.60
2019-05-25T05:39:06.250Z,34.58
2019-05-25T05:39:42.578Z,34.59
2019-05-25T05:40:18.544Z,34.58
2019-05-25T05:40:54.846Z,34.59
2019-05-25T05:41:32.314Z,34.56
2019-05-25T05:42:09.678Z,34.54
2019-05-25T05:42:47.042Z,34.54
2019-05-25T05:43:23.189Z,34.52
2019-05-25T05:43:59.153Z,34.49
2019-05-25T05:44:36.272Z,34.44
2019-05-25T05:45:12.449Z,34.42
2019-05-25T05:45:49.601Z,34.42
2019-05-25T05:46:25.587Z,34.42
2019-05-25T05:47:01.761Z,34.41
2019-05-25T05:47:38.069Z,34.38
2019-05-25T05:48:14.700Z,34.36
2019-05-25T05:48:53.029Z,34.35
2019-05-25T05:49:30.533Z,34.32
2019-05-25T05:50:08.266Z,34.34
2019-05-25T05:50:44.135Z,34.34
2019-05-25T05:51:21.973Z,34.34
2019-05-25T05:52:00.837Z,34.33
2019-05-25T05:52:39.302Z,34.32
2019-05-25T05:53:15.295Z,34.34
2019-05-25T05:53:54.682Z,34.33
2019-05-25T05:54:30.961Z,34.33
2019-05-25T05:55:07.169Z,34.37
2019-05-25T05:55:43.097Z,34.39
2019-05-25T05:56:18.951Z,34.41
2019-05-25T05:57:10.729Z,34.41
2019-05-25T05:57:32.465Z,34.38
2019-05-25T05:58:08.344Z,34.38
2019-05-25T05:58:44.293Z,34.33
2019-05-25T05:59:20.164Z,34.35
2019-05-25T05:59:56.050Z,34.32
2019-05-25T06:00:32.115Z,34.27
2019-05-25T06:01:08.080Z,34.23
2019-05-25T06:01:43.962Z,34.25
2019-05-25T06:02:19.872Z,34.24
2019-05-25T06:02:55.748Z,34.24
2019-05-25T06:03:31.645Z,34.26
2019-05-25T06:04:07.597Z,34.27
2019-05-25T06:04:43.673Z,34.26
2019-05-25T06:05:19.556Z,34.25
2019-05-25T06:05:55.454Z,34.23
2019-05-25T06:06:31.356Z,34.26
2019-05-25T06:07:07.265Z,34.31
2019-05-25T06:07:43.154Z,34.39
2019-05-25T06:08:19.062Z,34.45
2019-05-25T06:08:55.038Z,34.50
2019-05-25T06:09:30.948Z,34.57
2019-05-25T06:10:08.326Z,34.62
2019-05-25T06:10:44.154Z,34.62
2019-05-25T06:11:20.063Z,34.61
2019-05-25T06:11:55.989Z,34.66
2019-05-25T06:12:32.090Z,34.66
2019-05-25T06:13:07.940Z,34.67
2019-05-25T06:13:43.896Z,34.68
2019-05-25T06:14:19.819Z,34.67
2019-05-25T06:14:55.700Z,34.67
2019-05-25T06:15:31.666Z,34.68
2019-05-25T06:16:09.124Z,34.67
2019-05-25T06:16:45.020Z,34.66
2019-05-25T06:17:20.881Z,34.64
2019-05-25T06:17:56.716Z,34.74
2019-05-25T06:18:32.594Z,34.76
2019-05-25T06:19:08.427Z,34.67
2019-05-25T06:19:44.267Z,34.62
2019-05-25T06:20:20.164Z,34.56
2019-05-25T06:20:56.023Z,34.51
2019-05-25T06:21:31.928Z,34.49
2019-05-25T06:22:07.761Z,34.44
2019-05-25T06:22:43.633Z,34.43
2019-05-25T06:23:19.496Z,34.52
2019-05-25T06:23:55.414Z,34.53
2019-05-25T06:24:31.875Z,34.50
2019-05-25T06:25:08.342Z,34.44
2019-05-25T06:25:44.344Z,34.39
2019-05-25T06:26:20.236Z,34.38
2019-05-25T06:26:56.162Z,34.35
2019-05-25T06:27:32.012Z,34.33
2019-05-25T06:28:07.867Z,34.30
2019-05-25T06:28:43.707Z,34.25
2019-05-25T06:29:21.088Z,34.28
2019-05-25T06:29:56.988Z,34.36
2019-05-25T06:30:32.960Z,34.32
2019-05-25T06:31:08.806Z,34.27
2019-05-25T06:31:44.758Z,34.23
2019-05-25T06:32:20.630Z,34.21
2019-05-25T06:32:56.505Z,34.20
2019-05-25T06:33:32.421Z,34.16
2019-05-25T06:34:08.518Z,34.10
2019-05-25T06:34:44.433Z,34.08
2019-05-25T06:35:20.506Z,34.04
2019-05-25T06:35:56.529Z,34.00
2019-05-25T06:36:32.517Z,34.02
2019-05-25T06:37:08.415Z,34.02
2019-05-25T06:37:44.299Z,33.99
2019-05-25T06:38:20.339Z,34.14
2019-05-25T06:38:56.315Z,34.25
2019-05-25T06:39:32.217Z,34.40
2019-05-25T06:40:08.482Z,34.50
2019-05-25T06:40:44.923Z,34.61
2019-05-25T06:41:20.843Z,34.74
2019-05-25T06:41:56.857Z,34.84
2019-05-25T06:42:32.739Z,34.94
2019-05-25T06:43:08.694Z,35.04
2019-05-25T06:43:44.588Z,35.16
2019-05-25T06:44:20.464Z,35.24
2019-05-25T06:44:56.333Z,35.19
2019-05-25T06:45:32.687Z,35.29
2019-05-25T06:46:08.707Z,35.41
2019-05-25T06:46:44.618Z,35.50
2019-05-25T06:47:20.473Z,35.56
2019-05-25T06:47:57.373Z,35.63
2019-05-25T06:48:34.135Z,35.68
2019-05-25T06:49:10.875Z,35.77
2019-05-25T06:49:47.224Z,35.84
2019-05-25T06:50:23.754Z,35.93
2019-05-25T06:51:00.329Z,36.03
2019-05-25T06:51:36.829Z,36.10
2019-05-25T06:52:13.316Z,36.19
2019-05-25T06:52:49.703Z,36.25
2019-05-25T06:53:26.147Z,36.27
2019-05-25T06:54:02.911Z,36.33
2019-05-25T06:54:39.582Z,36.35
2019-05-25T06:55:15.933Z,36.42
2019-05-25T06:55:52.264Z,36.50
2019-05-25T06:56:29.113Z,36.58
2019-05-25T06:57:05.787Z,36.64
2019-05-25T06:57:43.832Z,36.64
2019-05-25T06:58:20.403Z,36.70
2019-05-25T06:58:57.215Z,36.77
2019-05-25T06:59:33.547Z,36.82
2019-05-25T07:00:11.399Z,36.83
2019-05-25T07:00:47.984Z,36.83
2019-05-25T07:01:24.440Z,36.84
2019-05-25T07:02:01.051Z,36.85
2019-05-25T07:02:37.723Z,36.82
2019-05-25T07:03:14.026Z,36.84
2019-05-25T07:03:50.160Z,36.80
2019-05-25T07:04:27.064Z,36.76
2019-05-25T07:05:03.994Z,36.75
2019-05-25T07:05:40.557Z,36.77
2019-05-25T07:06:17.960Z,36.74
2019-05-25T07:06:54.627Z,36.74
2019-05-25T07:07:31.147Z,36.73
2019-05-25T07:08:07.488Z,36.73
2019-05-25T07:08:43.972Z,36.69
2019-05-25T07:09:20.539Z,36.62
2019-05-25T07:09:57.098Z,36.58
2019-05-25T07:10:33.474Z,36.53
2019-05-25T07:11:09.986Z,36.43
2019-05-25T07:11:46.833Z,36.36
2019-05-25T07:12:23.397Z,36.37
2019-05-25T07:12:59.770Z,36.41
2019-05-25T07:13:36.326Z,36.47
2019-05-25T07:14:12.998Z,36.50
2019-05-25T07:14:49.533Z,36.58
2019-05-25T07:15:25.991Z,36.63
2019-05-25T07:16:02.524Z,36.69
2019-05-25T07:16:39.306Z,36.74
2019-05-25T07:17:15.983Z,36.79
2019-05-25T07:17:52.440Z,36.86
2019-05-25T07:18:28.955Z,36.90
2019-05-25T07:19:05.612Z,36.95
2019-05-25T07:19:42.191Z,37.01
2019-05-25T07:20:18.764Z,37.04
2019-05-25T07:20:55.374Z,37.06
2019-05-25T07:21:31.857Z,37.02
2019-05-25T07:22:08.438Z,37.06
2019-05-25T07:22:45.077Z,37.06
2019-05-25T07:23:21.831Z,37.04
2019-05-25T07:23:58.443Z,37.08
2019-05-25T07:24:34.646Z,37.11
2019-05-25T07:25:11.380Z,37.15
2019-05-25T07:25:50.698Z,37.16
2019-05-25T07:26:27.430Z,37.15
2019-05-25T07:27:03.514Z,37.17
2019-05-25T07:27:39.830Z,37.19
2019-05-25T07:28:16.050Z,37.20
2019-05-25T07:28:52.306Z,37.21
2019-05-25T07:29:28.852Z,37.24
2019-05-25T07:30:05.665Z,37.26
2019-05-25T07:30:42.561Z,37.27
2019-05-25T07:31:18.488Z,37.26
2019-05-25T07:31:55.177Z,37.29
2019-05-25T07:32:31.103Z,37.28
2019-05-25T07:33:07.232Z,37.27
2019-05-25T07:33:43.620Z,37.25
2019-05-25T07:34:19.973Z,37.26
2019-05-25T07:34:55.858Z,37.27
2019-05-25T07:35:32.287Z,37.25
2019-05-25T07:36:08.732Z,37.25
2019-05-25T07:36:44.793Z,37.26
2019-05-25T07:37:21.692Z,37.27
2019-05-25T07:37:58.210Z,37.26
2019-05-25T07:38:34.666Z,37.28
2019-05-25T07:39:10.934Z,37.26
2019-05-25T07:39:47.364Z,37.25
2019-05-25T07:40:23.670Z,37.25
2019-05-25T07:40:59.760Z,37.28
2019-05-25T07:41:36.004Z,37.26
2019-05-25T07:42:12.234Z,37.26
2019-05-25T07:42:48.873Z,37.27
2019-05-25T07:43:25.349Z,37.26
2019-05-25T07:44:01.920Z,37.15
2019-05-25T07:44:38.771Z,36.93
2019-05-25T07:45:15.868Z,36.72
2019-05-25T07:45:52.376Z,36.59
2019-05-25T07:46:29.530Z,36.64